sensor_id;sensor_type;location;lat;lon;timestamp;P1;durP1;ratioP1;P2;durP2;ratioP2
84905;SDS011;75170;42.116;21.740;2024-01-15T00:00:32;109.60;;;48.30;;
84905;SDS011;75170;42.116;21.740;2024-01-15T00:02:59;111.35;;;47.50;;
84905;SDS011;75170;42.116;21.740;2024-01-15T00:05:25;92.72;;;42.53;;
84905;SDS011;75170;42.116;21.740;2024-01-15T00:07:51;79.22;;;36.60;;
84905;SDS011;75170;42.116;21.740;2024-01-15T00:10:17;79.28;;;32.45;;
84905;SDS011;75170;42.116;21.740;2024-01-15T00:12:43;93.28;;;41.80;;
84905;SDS011;75170;42.116;21.740;2024-01-15T00:15:09;89.20;;;40.95;;
84905;SDS011;75170;42.116;21.740;2024-01-15T00:17:35;70.45;;;32.67;;
84905;SDS011;75170;42.116;21.740;2024-01-15T00:20:02;64.68;;;28.58;;
84905;SDS011;75170;42.116;21.740;2024-01-15T00:22:28;65.90;;;29.70;;
84905;SDS011;75170;42.116;21.740;2024-01-15T00:24:55;65.40;;;29.67;;
84905;SDS011;75170;42.116;21.740;2024-01-15T00:27:21;58.22;;;26.92;;
84905;SDS011;75170;42.116;21.740;2024-01-15T00:29:49;66.05;;;28.25;;
84905;SDS011;75170;42.116;21.740;2024-01-15T00:32:19;60.35;;;27.48;;
84905;SDS011;75170;42.116;21.740;2024-01-15T00:34:45;66.22;;;29.27;;
84905;SDS011;75170;42.116;21.740;2024-01-15T00:37:11;59.20;;;27.45;;
84905;SDS011;75170;42.116;21.740;2024-01-15T00:39:37;55.95;;;26.35;;
84905;SDS011;75170;42.116;21.740;2024-01-15T00:42:04;56.15;;;26.25;;
84905;SDS011;75170;42.116;21.740;2024-01-15T00:44:30;58.15;;;24.90;;
84905;SDS011;75170;42.116;21.740;2024-01-15T00:46:56;54.72;;;25.17;;
84905;SDS011;75170;42.116;21.740;2024-01-15T00:49:23;57.17;;;25.70;;
84905;SDS011;75170;42.116;21.740;2024-01-15T00:51:49;61.92;;;27.15;;
84905;SDS011;75170;42.116;21.740;2024-01-15T00:54:15;71.25;;;28.48;;
84905;SDS011;75170;42.116;21.740;2024-01-15T00:56:42;70.45;;;28.83;;
84905;SDS011;75170;42.116;21.740;2024-01-15T00:59:08;76.07;;;32.53;;
84905;SDS011;75170;42.116;21.740;2024-01-15T01:01:39;77.68;;;34.05;;
84905;SDS011;75170;42.116;21.740;2024-01-15T01:04:08;79.35;;;33.60;;
84905;SDS011;75170;42.116;21.740;2024-01-15T01:06:34;67.30;;;33.08;;
84905;SDS011;75170;42.116;21.740;2024-01-15T01:09:01;88.68;;;40.90;;
84905;SDS011;75170;42.116;21.740;2024-01-15T01:11:27;93.75;;;43.38;;
84905;SDS011;75170;42.116;21.740;2024-01-15T01:13:53;92.45;;;42.85;;
84905;SDS011;75170;42.116;21.740;2024-01-15T01:16:19;98.45;;;42.88;;
84905;SDS011;75170;42.116;21.740;2024-01-15T01:18:45;91.43;;;40.60;;
84905;SDS011;75170;42.116;21.740;2024-01-15T01:21:11;99.57;;;43.58;;
84905;SDS011;75170;42.116;21.740;2024-01-15T01:23:37;95.00;;;42.72;;
84905;SDS011;75170;42.116;21.740;2024-01-15T01:26:04;102.55;;;43.95;;
84905;SDS011;75170;42.116;21.740;2024-01-15T01:28:30;100.63;;;44.17;;
84905;SDS011;75170;42.116;21.740;2024-01-15T01:30:56;105.15;;;45.20;;
84905;SDS011;75170;42.116;21.740;2024-01-15T01:33:22;107.10;;;46.83;;
84905;SDS011;75170;42.116;21.740;2024-01-15T01:35:48;110.82;;;48.72;;
84905;SDS011;75170;42.116;21.740;2024-01-15T01:38:14;116.97;;;49.95;;
84905;SDS011;75170;42.116;21.740;2024-01-15T01:40:40;129.80;;;55.88;;
84905;SDS011;75170;42.116;21.740;2024-01-15T01:43:08;130.80;;;58.00;;
84905;SDS011;75170;42.116;21.740;2024-01-15T01:45:35;131.38;;;58.40;;
84905;SDS011;75170;42.116;21.740;2024-01-15T01:48:01;123.97;;;55.20;;
84905;SDS011;75170;42.116;21.740;2024-01-15T01:50:30;123.60;;;54.10;;
84905;SDS011;75170;42.116;21.740;2024-01-15T01:52:57;130.65;;;59.55;;
84905;SDS011;75170;42.116;21.740;2024-01-15T01:55:24;128.55;;;54.92;;
84905;SDS011;75170;42.116;21.740;2024-01-15T01:57:52;123.60;;;53.40;;
84905;SDS011;75170;42.116;21.740;2024-01-15T02:00:18;111.80;;;51.58;;
84905;SDS011;75170;42.116;21.740;2024-01-15T02:02:44;115.72;;;49.40;;
84905;SDS011;75170;42.116;21.740;2024-01-15T02:05:11;109.50;;;50.50;;
84905;SDS011;75170;42.116;21.740;2024-01-15T02:07:38;92.88;;;43.00;;
84905;SDS011;75170;42.116;21.740;2024-01-15T02:10:04;107.03;;;47.10;;
84905;SDS011;75170;42.116;21.740;2024-01-15T02:12:31;102.13;;;44.10;;
84905;SDS011;75170;42.116;21.740;2024-01-15T02:14:57;102.00;;;45.75;;
84905;SDS011;75170;42.116;21.740;2024-01-15T02:17:23;102.68;;;46.28;;
84905;SDS011;75170;42.116;21.740;2024-01-15T02:19:49;97.78;;;44.38;;
84905;SDS011;75170;42.116;21.740;2024-01-15T02:22:16;100.32;;;44.22;;
84905;SDS011;75170;42.116;21.740;2024-01-15T02:24:42;87.15;;;36.35;;
84905;SDS011;75170;42.116;21.740;2024-01-15T02:27:09;81.20;;;34.88;;
84905;SDS011;75170;42.116;21.740;2024-01-15T02:29:35;75.35;;;34.03;;
84905;SDS011;75170;42.116;21.740;2024-01-15T02:32:05;66.13;;;29.90;;
84905;SDS011;75170;42.116;21.740;2024-01-15T02:34:32;57.88;;;25.73;;
84905;SDS011;75170;42.116;21.740;2024-01-15T02:36:58;53.70;;;24.98;;
84905;SDS011;75170;42.116;21.740;2024-01-15T02:39:24;63.90;;;30.98;;
84905;SDS011;75170;42.116;21.740;2024-01-15T02:41:50;68.13;;;31.80;;
84905;SDS011;75170;42.116;21.740;2024-01-15T02:44:16;70.35;;;30.63;;
84905;SDS011;75170;42.116;21.740;2024-01-15T02:46:42;68.10;;;31.67;;
84905;SDS011;75170;42.116;21.740;2024-01-15T02:49:09;74.90;;;33.08;;
84905;SDS011;75170;42.116;21.740;2024-01-15T02:51:35;80.65;;;34.80;;
84905;SDS011;75170;42.116;21.740;2024-01-15T02:54:01;69.63;;;30.90;;
84905;SDS011;75170;42.116;21.740;2024-01-15T02:56:27;60.38;;;25.05;;
84905;SDS011;75170;42.116;21.740;2024-01-15T02:58:53;55.63;;;24.10;;
84905;SDS011;75170;42.116;21.740;2024-01-15T03:01:20;55.72;;;23.00;;
84905;SDS011;75170;42.116;21.740;2024-01-15T03:03:47;46.80;;;22.05;;
84905;SDS011;75170;42.116;21.740;2024-01-15T03:06:13;50.38;;;22.10;;
84905;SDS011;75170;42.116;21.740;2024-01-15T03:08:39;44.53;;;20.55;;
84905;SDS011;75170;42.116;21.740;2024-01-15T03:11:06;44.45;;;20.02;;
84905;SDS011;75170;42.116;21.740;2024-01-15T03:13:35;43.95;;;19.30;;
84905;SDS011;75170;42.116;21.740;2024-01-15T03:16:02;42.72;;;19.13;;
84905;SDS011;75170;42.116;21.740;2024-01-15T03:18:29;40.85;;;18.70;;
84905;SDS011;75170;42.116;21.740;2024-01-15T03:20:55;39.88;;;19.60;;
84905;SDS011;75170;42.116;21.740;2024-01-15T03:23:21;42.35;;;18.88;;
84905;SDS011;75170;42.116;21.740;2024-01-15T03:25:47;43.97;;;18.48;;
84905;SDS011;75170;42.116;21.740;2024-01-15T03:28:14;42.67;;;18.95;;
84905;SDS011;75170;42.116;21.740;2024-01-15T03:30:40;44.95;;;18.75;;
84905;SDS011;75170;42.116;21.740;2024-01-15T03:33:06;47.13;;;20.40;;
84905;SDS011;75170;42.116;21.740;2024-01-15T03:35:33;45.72;;;20.38;;
84905;SDS011;75170;42.116;21.740;2024-01-15T03:37:59;44.80;;;19.10;;
84905;SDS011;75170;42.116;21.740;2024-01-15T03:40:25;44.03;;;19.95;;
84905;SDS011;75170;42.116;21.740;2024-01-15T03:42:51;45.28;;;20.10;;
84905;SDS011;75170;42.116;21.740;2024-01-15T03:45:17;47.22;;;20.45;;
84905;SDS011;75170;42.116;21.740;2024-01-15T03:47:43;62.72;;;23.67;;
84905;SDS011;75170;42.116;21.740;2024-01-15T03:50:09;65.45;;;24.70;;
84905;SDS011;75170;42.116;21.740;2024-01-15T03:52:35;50.63;;;22.58;;
84905;SDS011;75170;42.116;21.740;2024-01-15T03:55:03;47.50;;;20.65;;
84905;SDS011;75170;42.116;21.740;2024-01-15T03:57:29;38.53;;;19.08;;
84905;SDS011;75170;42.116;21.740;2024-01-15T03:59:55;50.53;;;21.40;;
84905;SDS011;75170;42.116;21.740;2024-01-15T04:02:21;45.90;;;19.13;;
84905;SDS011;75170;42.116;21.740;2024-01-15T04:04:47;44.95;;;19.77;;
84905;SDS011;75170;42.116;21.740;2024-01-15T04:07:13;46.30;;;19.55;;
84905;SDS011;75170;42.116;21.740;2024-01-15T04:09:39;43.75;;;19.15;;
84905;SDS011;75170;42.116;21.740;2024-01-15T04:12:05;43.67;;;19.52;;
84905;SDS011;75170;42.116;21.740;2024-01-15T04:14:32;42.85;;;20.02;;
84905;SDS011;75170;42.116;21.740;2024-01-15T04:16:58;43.80;;;20.23;;
84905;SDS011;75170;42.116;21.740;2024-01-15T04:19:24;36.90;;;18.13;;
84905;SDS011;75170;42.116;21.740;2024-01-15T04:21:50;41.97;;;19.50;;
84905;SDS011;75170;42.116;21.740;2024-01-15T04:24:16;44.10;;;19.73;;
84905;SDS011;75170;42.116;21.740;2024-01-15T04:26:43;42.15;;;18.58;;
84905;SDS011;75170;42.116;21.740;2024-01-15T04:29:09;38.63;;;18.48;;
84905;SDS011;75170;42.116;21.740;2024-01-15T04:31:35;40.50;;;18.95;;
84905;SDS011;75170;42.116;21.740;2024-01-15T04:34:01;40.25;;;18.42;;
84905;SDS011;75170;42.116;21.740;2024-01-15T04:36:27;50.38;;;18.33;;
84905;SDS011;75170;42.116;21.740;2024-01-15T04:38:54;34.97;;;17.70;;
84905;SDS011;75170;42.116;21.740;2024-01-15T04:41:20;39.05;;;16.90;;
84905;SDS011;75170;42.116;21.740;2024-01-15T04:43:46;36.58;;;17.50;;
84905;SDS011;75170;42.116;21.740;2024-01-15T04:46:12;38.55;;;17.15;;
84905;SDS011;75170;42.116;21.740;2024-01-15T04:48:38;42.45;;;19.23;;
84905;SDS011;75170;42.116;21.740;2024-01-15T04:51:05;43.60;;;20.00;;
84905;SDS011;75170;42.116;21.740;2024-01-15T04:53:31;47.38;;;21.05;;
84905;SDS011;75170;42.116;21.740;2024-01-15T04:55:58;49.10;;;24.15;;
84905;SDS011;75170;42.116;21.740;2024-01-15T04:58:24;48.65;;;22.40;;
84905;SDS011;75170;42.116;21.740;2024-01-15T05:00:52;42.92;;;20.25;;
84905;SDS011;75170;42.116;21.740;2024-01-15T05:03:19;44.60;;;20.08;;
84905;SDS011;75170;42.116;21.740;2024-01-15T05:05:45;42.85;;;18.70;;
84905;SDS011;75170;42.116;21.740;2024-01-15T05:08:11;44.70;;;20.63;;
84905;SDS011;75170;42.116;21.740;2024-01-15T05:10:37;44.97;;;20.45;;
84905;SDS011;75170;42.116;21.740;2024-01-15T05:13:04;43.55;;;19.98;;
84905;SDS011;75170;42.116;21.740;2024-01-15T05:15:30;45.22;;;19.98;;
84905;SDS011;75170;42.116;21.740;2024-01-15T05:17:56;44.67;;;19.13;;
84905;SDS011;75170;42.116;21.740;2024-01-15T05:20:22;51.92;;;22.98;;
84905;SDS011;75170;42.116;21.740;2024-01-15T05:22:49;48.42;;;21.90;;
84905;SDS011;75170;42.116;21.740;2024-01-15T05:25:15;43.30;;;20.75;;
84905;SDS011;75170;42.116;21.740;2024-01-15T05:27:41;42.58;;;20.63;;
84905;SDS011;75170;42.116;21.740;2024-01-15T05:30:07;54.08;;;23.67;;
84905;SDS011;75170;42.116;21.740;2024-01-15T05:32:34;59.92;;;25.42;;
84905;SDS011;75170;42.116;21.740;2024-01-15T05:35:00;60.03;;;25.08;;
84905;SDS011;75170;42.116;21.740;2024-01-15T05:37:26;50.75;;;22.50;;
84905;SDS011;75170;42.116;21.740;2024-01-15T05:39:52;53.83;;;24.90;;
84905;SDS011;75170;42.116;21.740;2024-01-15T05:42:18;55.75;;;26.90;;
84905;SDS011;75170;42.116;21.740;2024-01-15T05:44:45;49.40;;;20.80;;
84905;SDS011;75170;42.116;21.740;2024-01-15T05:47:11;46.72;;;20.85;;
84905;SDS011;75170;42.116;21.740;2024-01-15T05:49:38;52.45;;;23.48;;
84905;SDS011;75170;42.116;21.740;2024-01-15T05:52:04;41.88;;;19.30;;
84905;SDS011;75170;42.116;21.740;2024-01-15T05:54:30;41.80;;;18.88;;
84905;SDS011;75170;42.116;21.740;2024-01-15T05:56:56;40.47;;;18.25;;
84905;SDS011;75170;42.116;21.740;2024-01-15T05:59:23;42.83;;;18.70;;
84905;SDS011;75170;42.116;21.740;2024-01-15T06:01:50;38.70;;;18.60;;
84905;SDS011;75170;42.116;21.740;2024-01-15T06:04:17;38.60;;;18.85;;
84905;SDS011;75170;42.116;21.740;2024-01-15T06:06:43;57.53;;;28.00;;
84905;SDS011;75170;42.116;21.740;2024-01-15T06:09:09;64.03;;;33.03;;
84905;SDS011;75170;42.116;21.740;2024-01-15T06:11:35;58.92;;;29.08;;
84905;SDS011;75170;42.116;21.740;2024-01-15T06:14:01;45.72;;;22.42;;
84905;SDS011;75170;42.116;21.740;2024-01-15T06:16:28;48.00;;;22.80;;
84905;SDS011;75170;42.116;21.740;2024-01-15T06:18:54;46.03;;;20.85;;
84905;SDS011;75170;42.116;21.740;2024-01-15T06:21:21;46.13;;;22.40;;
84905;SDS011;75170;42.116;21.740;2024-01-15T06:23:47;51.38;;;24.02;;
84905;SDS011;75170;42.116;21.740;2024-01-15T06:26:13;49.20;;;23.60;;
84905;SDS011;75170;42.116;21.740;2024-01-15T06:28:39;46.08;;;21.92;;
84905;SDS011;75170;42.116;21.740;2024-01-15T06:31:08;43.95;;;20.42;;
84905;SDS011;75170;42.116;21.740;2024-01-15T06:33:34;49.15;;;21.48;;
84905;SDS011;75170;42.116;21.740;2024-01-15T06:36:00;41.92;;;19.42;;
84905;SDS011;75170;42.116;21.740;2024-01-15T06:38:27;45.92;;;23.08;;
84905;SDS011;75170;42.116;21.740;2024-01-15T06:40:53;52.45;;;22.20;;
84905;SDS011;75170;42.116;21.740;2024-01-15T06:43:19;51.80;;;23.30;;
84905;SDS011;75170;42.116;21.740;2024-01-15T06:45:45;54.38;;;22.00;;
84905;SDS011;75170;42.116;21.740;2024-01-15T06:48:11;37.67;;;17.98;;
84905;SDS011;75170;42.116;21.740;2024-01-15T06:50:39;43.53;;;19.27;;
84905;SDS011;75170;42.116;21.740;2024-01-15T06:53:05;43.03;;;20.65;;
84905;SDS011;75170;42.116;21.740;2024-01-15T06:55:32;54.20;;;23.55;;
84905;SDS011;75170;42.116;21.740;2024-01-15T06:57:58;51.42;;;23.92;;
84905;SDS011;75170;42.116;21.740;2024-01-15T07:00:24;56.08;;;24.90;;
84905;SDS011;75170;42.116;21.740;2024-01-15T07:02:50;46.13;;;21.20;;
84905;SDS011;75170;42.116;21.740;2024-01-15T07:05:17;54.45;;;24.40;;
84905;SDS011;75170;42.116;21.740;2024-01-15T07:07:43;52.63;;;26.80;;
84905;SDS011;75170;42.116;21.740;2024-01-15T07:10:09;42.83;;;18.90;;
84905;SDS011;75170;42.116;21.740;2024-01-15T07:12:35;40.40;;;18.63;;
84905;SDS011;75170;42.116;21.740;2024-01-15T07:15:01;50.58;;;20.92;;
84905;SDS011;75170;42.116;21.740;2024-01-15T07:17:27;48.95;;;22.08;;
84905;SDS011;75170;42.116;21.740;2024-01-15T07:19:53;42.58;;;19.70;;
84905;SDS011;75170;42.116;21.740;2024-01-15T07:22:20;44.78;;;20.20;;
84905;SDS011;75170;42.116;21.740;2024-01-15T07:24:46;42.13;;;19.42;;
84905;SDS011;75170;42.116;21.740;2024-01-15T07:27:12;39.53;;;19.33;;
84905;SDS011;75170;42.116;21.740;2024-01-15T07:29:39;46.60;;;22.02;;
84905;SDS011;75170;42.116;21.740;2024-01-15T07:32:05;44.28;;;22.42;;
84905;SDS011;75170;42.116;21.740;2024-01-15T07:34:32;44.30;;;21.23;;
84905;SDS011;75170;42.116;21.740;2024-01-15T07:36:58;35.05;;;18.35;;
84905;SDS011;75170;42.116;21.740;2024-01-15T07:39:25;37.63;;;18.40;;
84905;SDS011;75170;42.116;21.740;2024-01-15T07:41:51;40.17;;;18.08;;
84905;SDS011;75170;42.116;21.740;2024-01-15T07:44:17;36.15;;;18.05;;
84905;SDS011;75170;42.116;21.740;2024-01-15T07:46:49;55.55;;;24.90;;
84905;SDS011;75170;42.116;21.740;2024-01-15T07:49:15;39.35;;;19.45;;
84905;SDS011;75170;42.116;21.740;2024-01-15T07:51:41;44.03;;;20.67;;
84905;SDS011;75170;42.116;21.740;2024-01-15T07:54:10;55.30;;;28.67;;
84905;SDS011;75170;42.116;21.740;2024-01-15T07:56:55;57.72;;;27.48;;
84905;SDS011;75170;42.116;21.740;2024-01-15T07:59:24;57.03;;;27.95;;
84905;SDS011;75170;42.116;21.740;2024-01-15T08:01:57;58.50;;;30.00;;
84905;SDS011;75170;42.116;21.740;2024-01-15T08:04:24;96.13;;;37.70;;
84905;SDS011;75170;42.116;21.740;2024-01-15T08:06:50;143.55;;;56.00;;
84905;SDS011;75170;42.116;21.740;2024-01-15T08:09:16;61.05;;;26.65;;
84905;SDS011;75170;42.116;21.740;2024-01-15T08:11:42;45.90;;;24.10;;
84905;SDS011;75170;42.116;21.740;2024-01-15T08:14:09;49.92;;;22.05;;
84905;SDS011;75170;42.116;21.740;2024-01-15T08:16:36;52.53;;;25.33;;
84905;SDS011;75170;42.116;21.740;2024-01-15T08:19:02;49.97;;;24.23;;
84905;SDS011;75170;42.116;21.740;2024-01-15T08:21:28;117.22;;;46.85;;
84905;SDS011;75170;42.116;21.740;2024-01-15T08:23:58;95.40;;;38.35;;
84905;SDS011;75170;42.116;21.740;2024-01-15T08:26:24;133.05;;;56.80;;
84905;SDS011;75170;42.116;21.740;2024-01-15T08:28:51;49.53;;;22.48;;
84905;SDS011;75170;42.116;21.740;2024-01-15T08:31:17;41.60;;;20.23;;
84905;SDS011;75170;42.116;21.740;2024-01-15T08:33:43;45.80;;;23.23;;
84905;SDS011;75170;42.116;21.740;2024-01-15T08:36:09;37.78;;;18.20;;
84905;SDS011;75170;42.116;21.740;2024-01-15T08:38:35;44.00;;;19.95;;
84905;SDS011;75170;42.116;21.740;2024-01-15T08:41:01;69.43;;;31.15;;
84905;SDS011;75170;42.116;21.740;2024-01-15T08:43:28;53.28;;;24.58;;
84905;SDS011;75170;42.116;21.740;2024-01-15T08:45:56;45.22;;;18.55;;
84905;SDS011;75170;42.116;21.740;2024-01-15T08:48:22;41.85;;;19.92;;
84905;SDS011;75170;42.116;21.740;2024-01-15T08:50:48;48.85;;;24.40;;
84905;SDS011;75170;42.116;21.740;2024-01-15T08:53:14;43.25;;;20.63;;
84905;SDS011;75170;42.116;21.740;2024-01-15T08:55:40;43.08;;;22.85;;
84905;SDS011;75170;42.116;21.740;2024-01-15T08:58:09;54.85;;;28.77;;
84905;SDS011;75170;42.116;21.740;2024-01-15T09:00:35;40.40;;;19.58;;
84905;SDS011;75170;42.116;21.740;2024-01-15T09:03:02;43.70;;;19.92;;
84905;SDS011;75170;42.116;21.740;2024-01-15T09:05:28;43.17;;;20.52;;
84905;SDS011;75170;42.116;21.740;2024-01-15T09:07:54;41.65;;;22.58;;
84905;SDS011;75170;42.116;21.740;2024-01-15T09:10:20;42.88;;;20.05;;
84905;SDS011;75170;42.116;21.740;2024-01-15T09:12:47;46.75;;;20.90;;
84905;SDS011;75170;42.116;21.740;2024-01-15T09:15:14;43.55;;;20.02;;
84905;SDS011;75170;42.116;21.740;2024-01-15T09:17:40;41.75;;;20.50;;
84905;SDS011;75170;42.116;21.740;2024-01-15T09:20:07;43.17;;;22.05;;
84905;SDS011;75170;42.116;21.740;2024-01-15T09:22:33;44.70;;;21.73;;
84905;SDS011;75170;42.116;21.740;2024-01-15T09:24:59;46.75;;;23.98;;
84905;SDS011;75170;42.116;21.740;2024-01-15T09:27:25;42.67;;;20.60;;
84905;SDS011;75170;42.116;21.740;2024-01-15T09:29:54;46.58;;;22.65;;
84905;SDS011;75170;42.116;21.740;2024-01-15T09:32:20;40.88;;;21.40;;
84905;SDS011;75170;42.116;21.740;2024-01-15T09:34:46;41.85;;;21.67;;
84905;SDS011;75170;42.116;21.740;2024-01-15T09:37:15;45.00;;;22.17;;
84905;SDS011;75170;42.116;21.740;2024-01-15T09:39:42;43.25;;;22.33;;
84905;SDS011;75170;42.116;21.740;2024-01-15T09:42:08;49.55;;;24.98;;
84905;SDS011;75170;42.116;21.740;2024-01-15T09:44:35;49.00;;;24.50;;
84905;SDS011;75170;42.116;21.740;2024-01-15T09:47:03;51.05;;;25.45;;
84905;SDS011;75170;42.116;21.740;2024-01-15T09:49:29;59.53;;;26.17;;
84905;SDS011;75170;42.116;21.740;2024-01-15T09:51:56;47.28;;;24.20;;
84905;SDS011;75170;42.116;21.740;2024-01-15T09:54:22;49.83;;;24.13;;
84905;SDS011;75170;42.116;21.740;2024-01-15T09:56:49;48.35;;;23.33;;
84905;SDS011;75170;42.116;21.740;2024-01-15T09:59:15;44.28;;;22.73;;
84905;SDS011;75170;42.116;21.740;2024-01-15T10:01:42;45.13;;;22.23;;
84905;SDS011;75170;42.116;21.740;2024-01-15T10:04:09;48.15;;;23.13;;
84905;SDS011;75170;42.116;21.740;2024-01-15T10:06:37;52.70;;;25.38;;
84905;SDS011;75170;42.116;21.740;2024-01-15T10:09:04;60.05;;;27.48;;
84905;SDS011;75170;42.116;21.740;2024-01-15T10:13:59;52.63;;;24.58;;
84905;SDS011;75170;42.116;21.740;2024-01-15T10:16:28;60.47;;;28.70;;
84905;SDS011;75170;42.116;21.740;2024-01-15T10:18:54;54.45;;;26.42;;
84905;SDS011;75170;42.116;21.740;2024-01-15T10:21:20;53.05;;;27.60;;
84905;SDS011;75170;42.116;21.740;2024-01-15T10:23:46;54.53;;;28.45;;
84905;SDS011;75170;42.116;21.740;2024-01-15T10:26:12;58.47;;;30.77;;
84905;SDS011;75170;42.116;21.740;2024-01-15T10:28:38;55.05;;;28.08;;
84905;SDS011;75170;42.116;21.740;2024-01-15T10:31:06;48.95;;;23.70;;
84905;SDS011;75170;42.116;21.740;2024-01-15T10:33:32;52.13;;;28.17;;
84905;SDS011;75170;42.116;21.740;2024-01-15T10:35:59;49.35;;;25.75;;
84905;SDS011;75170;42.116;21.740;2024-01-15T10:38:26;35.83;;;18.58;;
84905;SDS011;75170;42.116;21.740;2024-01-15T10:40:53;41.28;;;20.45;;
84905;SDS011;75170;42.116;21.740;2024-01-15T10:43:19;53.30;;;24.98;;
84905;SDS011;75170;42.116;21.740;2024-01-15T10:45:49;58.13;;;25.75;;
84905;SDS011;75170;42.116;21.740;2024-01-15T10:48:16;79.15;;;35.70;;
84905;SDS011;75170;42.116;21.740;2024-01-15T10:50:45;64.75;;;31.05;;
84905;SDS011;75170;42.116;21.740;2024-01-15T10:53:13;54.72;;;27.73;;
84905;SDS011;75170;42.116;21.740;2024-01-15T10:55:39;64.97;;;31.63;;
84905;SDS011;75170;42.116;21.740;2024-01-15T10:58:07;55.88;;;26.40;;
84905;SDS011;75170;42.116;21.740;2024-01-15T11:00:34;59.17;;;30.08;;
84905;SDS011;75170;42.116;21.740;2024-01-15T11:03:04;60.13;;;28.55;;
84905;SDS011;75170;42.116;21.740;2024-01-15T11:05:37;52.28;;;26.88;;
84905;SDS011;75170;42.116;21.740;2024-01-15T11:08:06;67.20;;;33.80;;
84905;SDS011;75170;42.116;21.740;2024-01-15T11:10:43;40.33;;;20.13;;
84905;SDS011;75170;42.116;21.740;2024-01-15T11:13:15;31.63;;;17.05;;
84905;SDS011;75170;42.116;21.740;2024-01-15T11:15:57;30.35;;;16.33;;
84905;SDS011;75170;42.116;21.740;2024-01-15T11:18:26;28.98;;;16.23;;
84905;SDS011;75170;42.116;21.740;2024-01-15T11:21:37;29.67;;;16.40;;
84905;SDS011;75170;42.116;21.740;2024-01-15T11:23:45;32.97;;;17.83;;
84905;SDS011;75170;42.116;21.740;2024-01-15T11:28:56;29.15;;;14.80;;
84905;SDS011;75170;42.116;21.740;2024-01-15T11:32:10;38.95;;;19.45;;
84905;SDS011;75170;42.116;21.740;2024-01-15T11:34:11;36.42;;;19.70;;
84905;SDS011;75170;42.116;21.740;2024-01-15T11:41:54;46.65;;;23.10;;
84905;SDS011;75170;42.116;21.740;2024-01-15T11:44:21;44.92;;;22.83;;
84905;SDS011;75170;42.116;21.740;2024-01-15T11:52:03;46.28;;;22.08;;
84905;SDS011;75170;42.116;21.740;2024-01-15T11:54:31;44.25;;;21.92;;
84905;SDS011;75170;42.116;21.740;2024-01-15T11:59:24;34.35;;;18.20;;
84905;SDS011;75170;42.116;21.740;2024-01-15T12:01:52;40.45;;;19.35;;
84905;SDS011;75170;42.116;21.740;2024-01-15T12:04:20;36.25;;;20.08;;
84905;SDS011;75170;42.116;21.740;2024-01-15T12:06:46;55.22;;;24.65;;
84905;SDS011;75170;42.116;21.740;2024-01-15T12:09:12;39.90;;;19.35;;
84905;SDS011;75170;42.116;21.740;2024-01-15T12:11:39;36.40;;;18.98;;
84905;SDS011;75170;42.116;21.740;2024-01-15T12:14:07;33.75;;;17.80;;
84905;SDS011;75170;42.116;21.740;2024-01-15T12:16:33;34.55;;;17.77;;
84905;SDS011;75170;42.116;21.740;2024-01-15T12:18:59;35.47;;;18.15;;
84905;SDS011;75170;42.116;21.740;2024-01-15T12:21:28;30.48;;;17.17;;
84905;SDS011;75170;42.116;21.740;2024-01-15T12:23:55;35.13;;;18.58;;
84905;SDS011;75170;42.116;21.740;2024-01-15T12:26:21;36.08;;;19.52;;
84905;SDS011;75170;42.116;21.740;2024-01-15T12:28:49;39.65;;;21.17;;
84905;SDS011;75170;42.116;21.740;2024-01-15T12:31:16;41.22;;;20.73;;
84905;SDS011;75170;42.116;21.740;2024-01-15T12:33:42;34.28;;;18.08;;
84905;SDS011;75170;42.116;21.740;2024-01-15T12:36:08;37.78;;;19.48;;
84905;SDS011;75170;42.116;21.740;2024-01-15T12:38:34;38.92;;;18.60;;
84905;SDS011;75170;42.116;21.740;2024-01-15T12:41:01;40.30;;;19.17;;
84905;SDS011;75170;42.116;21.740;2024-01-15T12:43:27;40.20;;;20.33;;
84905;SDS011;75170;42.116;21.740;2024-01-15T12:45:53;38.63;;;19.98;;
84905;SDS011;75170;42.116;21.740;2024-01-15T12:48:19;39.10;;;20.10;;
84905;SDS011;75170;42.116;21.740;2024-01-15T12:50:46;41.17;;;20.25;;
84905;SDS011;75170;42.116;21.740;2024-01-15T12:53:13;37.17;;;20.58;;
84905;SDS011;75170;42.116;21.740;2024-01-15T12:55:39;35.25;;;18.75;;
84905;SDS011;75170;42.116;21.740;2024-01-15T12:58:05;41.20;;;21.10;;
84905;SDS011;75170;42.116;21.740;2024-01-15T13:00:31;38.85;;;20.38;;
84905;SDS011;75170;42.116;21.740;2024-01-15T13:02:57;36.90;;;19.05;;
84905;SDS011;75170;42.116;21.740;2024-01-15T13:05:23;36.45;;;17.50;;
84905;SDS011;75170;42.116;21.740;2024-01-15T13:07:52;33.22;;;17.65;;
84905;SDS011;75170;42.116;21.740;2024-01-15T13:10:18;40.17;;;19.73;;
84905;SDS011;75170;42.116;21.740;2024-01-15T13:12:44;39.58;;;21.27;;
84905;SDS011;75170;42.116;21.740;2024-01-15T13:15:10;40.40;;;20.02;;
84905;SDS011;75170;42.116;21.740;2024-01-15T13:17:37;35.83;;;18.23;;
84905;SDS011;75170;42.116;21.740;2024-01-15T13:20:04;35.75;;;18.77;;
84905;SDS011;75170;42.116;21.740;2024-01-15T13:22:31;42.22;;;21.48;;
84905;SDS011;75170;42.116;21.740;2024-01-15T13:24:57;39.20;;;20.00;;
84905;SDS011;75170;42.116;21.740;2024-01-15T13:27:24;46.50;;;19.52;;
84905;SDS011;75170;42.116;21.740;2024-01-15T13:29:50;34.85;;;17.67;;
84905;SDS011;75170;42.116;21.740;2024-01-15T13:32:22;35.75;;;18.50;;
84905;SDS011;75170;42.116;21.740;2024-01-15T13:34:51;41.75;;;19.42;;
84905;SDS011;75170;42.116;21.740;2024-01-15T13:37:17;36.75;;;18.27;;
84905;SDS011;75170;42.116;21.740;2024-01-15T13:39:43;41.10;;;20.83;;
84905;SDS011;75170;42.116;21.740;2024-01-15T13:42:09;37.97;;;20.60;;
84905;SDS011;75170;42.116;21.740;2024-01-15T13:44:36;36.75;;;19.90;;
84905;SDS011;75170;42.116;21.740;2024-01-15T13:47:03;37.58;;;19.73;;
84905;SDS011;75170;42.116;21.740;2024-01-15T13:49:30;38.92;;;18.73;;
84905;SDS011;75170;42.116;21.740;2024-01-15T13:51:59;35.13;;;20.02;;
84905;SDS011;75170;42.116;21.740;2024-01-15T13:54:25;37.33;;;19.00;;
84905;SDS011;75170;42.116;21.740;2024-01-15T13:56:51;40.30;;;21.67;;
84905;SDS011;75170;42.116;21.740;2024-01-15T13:59:17;42.00;;;20.88;;
84905;SDS011;75170;42.116;21.740;2024-01-15T14:01:43;40.47;;;20.40;;
84905;SDS011;75170;42.116;21.740;2024-01-15T14:04:12;42.40;;;22.65;;
84905;SDS011;75170;42.116;21.740;2024-01-15T14:06:38;49.55;;;25.88;;
84905;SDS011;75170;42.116;21.740;2024-01-15T14:09:04;66.10;;;37.00;;
84905;SDS011;75170;42.116;21.740;2024-01-15T14:11:35;45.28;;;24.77;;
84905;SDS011;75170;42.116;21.740;2024-01-15T14:14:01;46.25;;;22.33;;
84905;SDS011;75170;42.116;21.740;2024-01-15T14:16:27;41.33;;;21.80;;
84905;SDS011;75170;42.116;21.740;2024-01-15T14:18:53;39.75;;;20.67;;
84905;SDS011;75170;42.116;21.740;2024-01-15T14:21:19;47.33;;;23.13;;
84905;SDS011;75170;42.116;21.740;2024-01-15T14:23:46;39.38;;;21.15;;